You are listening to:
YPAD Del/Gnd/Twr/App - Adelaide, South Australia, Australia

YPAD 060830Z 00000KT 9999 SCT032 BKN043 12/08 Q1021

If stream doesn't start automatically press the play button
If stream stops then reload player then press play